createdAt,value
2019-03-20T00:01:21.142Z,8.96
2019-03-20T00:03:50.515Z,9.14
2019-03-20T00:06:19.847Z,9.11
2019-03-20T00:08:49.189Z,9.22
2019-03-20T00:11:18.534Z,9.18
2019-03-20T00:13:47.859Z,9.29
2019-03-20T00:16:17.333Z,9.21
2019-03-20T00:18:46.683Z,9.15
2019-03-20T00:21:16.019Z,9.15
2019-03-20T00:23:46.637Z,9.22
2019-03-20T00:26:15.983Z,9.15
2019-03-20T00:28:45.337Z,9.13
2019-03-20T00:31:14.687Z,9.08
2019-03-20T00:33:44.025Z,9.13
2019-03-20T00:36:13.368Z,9.13
2019-03-20T00:38:42.733Z,9.25
2019-03-20T00:41:12.085Z,9.18
2019-03-20T00:43:41.428Z,9.14
2019-03-20T00:46:10.826Z,8.97
2019-03-20T00:48:40.174Z,9.01
2019-03-20T00:51:09.515Z,8.93
2019-03-20T00:53:38.862Z,8.96
2019-03-20T00:56:08.220Z,8.88
2019-03-20T00:58:39.670Z,8.87
2019-03-20T01:01:08.666Z,8.89
2019-03-20T01:03:38.004Z,8.99
2019-03-20T01:06:07.353Z,8.83
2019-03-20T01:08:36.692Z,8.95
2019-03-20T01:11:06.022Z,9.05
2019-03-20T01:13:35.371Z,8.96
2019-03-20T01:16:04.789Z,8.84
2019-03-20T01:18:34.108Z,8.87
2019-03-20T01:21:03.533Z,8.89
2019-03-20T01:23:32.872Z,8.75
2019-03-20T01:26:02.210Z,8.87
2019-03-20T01:28:31.526Z,8.83
2019-03-20T01:31:00.884Z,8.71
2019-03-20T01:33:30.209Z,8.78
2019-03-20T01:35:59.617Z,8.69
2019-03-20T01:38:28.997Z,8.65
2019-03-20T01:40:58.328Z,8.63
2019-03-20T01:43:27.667Z,8.63
2019-03-20T01:45:57.005Z,8.41
2019-03-20T01:48:26.374Z,8.60
2019-03-20T01:50:55.703Z,8.60
2019-03-20T01:53:25.026Z,8.59
2019-03-20T01:55:54.369Z,8.54
2019-03-20T01:58:23.700Z,8.48
2019-03-20T02:00:53.041Z,8.60
2019-03-20T02:03:22.373Z,8.49
2019-03-20T02:05:51.730Z,8.37
2019-03-20T02:08:21.072Z,8.31
2019-03-20T02:10:50.405Z,8.32
2019-03-20T02:13:19.745Z,8.40
2019-03-20T02:15:49.089Z,8.40
2019-03-20T02:18:18.430Z,8.32
2019-03-20T02:20:47.761Z,8.34
2019-03-20T02:23:17.102Z,8.35
2019-03-20T02:25:46.511Z,8.46
2019-03-20T02:28:15.857Z,8.38
2019-03-20T02:30:45.223Z,8.45
2019-03-20T02:33:14.635Z,8.36
2019-03-20T02:35:51.206Z,8.32
2019-03-20T02:38:15.088Z,8.38
2019-03-20T02:40:44.438Z,8.27
2019-03-20T02:43:13.867Z,8.41
2019-03-20T02:45:43.292Z,8.39
2019-03-20T02:48:12.644Z,8.36
2019-03-20T02:50:42.008Z,8.07
2019-03-20T02:53:11.370Z,8.22
2019-03-20T02:55:40.719Z,8.35
2019-03-20T02:58:10.082Z,8.24
2019-03-20T03:00:39.416Z,8.29
2019-03-20T03:03:08.770Z,8.20
2019-03-20T03:05:38.133Z,8.23
2019-03-20T03:08:07.505Z,8.27
2019-03-20T03:10:36.829Z,8.22
2019-03-20T03:13:06.258Z,8.22
2019-03-20T03:15:35.593Z,8.28
2019-03-20T03:18:05.031Z,8.14
2019-03-20T03:20:34.393Z,8.21
2019-03-20T03:23:03.753Z,8.23
2019-03-20T03:25:33.122Z,8.15
2019-03-20T03:28:02.456Z,8.02
2019-03-20T03:30:31.872Z,7.97
2019-03-20T03:33:01.249Z,8.05
2019-03-20T03:35:30.877Z,8.11
2019-03-20T03:38:00.265Z,8.04
2019-03-20T03:40:29.621Z,8.05
2019-03-20T03:42:58.974Z,8.09
2019-03-20T03:45:28.335Z,8.31
2019-03-20T03:47:57.719Z,8.08
2019-03-20T03:50:27.065Z,8.05
2019-03-20T03:52:56.411Z,8.07
2019-03-20T03:55:25.765Z,8.02
2019-03-20T03:57:55.182Z,8.02
2019-03-20T04:00:24.557Z,8.07
2019-03-20T04:02:53.968Z,8.01
2019-03-20T04:05:23.349Z,7.99
2019-03-20T04:07:52.741Z,7.94
2019-03-20T04:10:22.117Z,7.97
2019-03-20T04:12:51.475Z,7.85
2019-03-20T04:15:20.818Z,7.82
2019-03-20T04:17:50.167Z,7.93
2019-03-20T04:20:19.914Z,7.89
2019-03-20T04:22:49.463Z,7.90
2019-03-20T04:25:18.881Z,7.80
2019-03-20T04:27:48.286Z,7.85
2019-03-20T04:30:17.727Z,7.93
2019-03-20T04:32:47.099Z,7.87
2019-03-20T04:35:16.597Z,7.91
2019-03-20T04:37:45.963Z,7.77
2019-03-20T04:40:15.318Z,7.85
2019-03-20T04:42:44.797Z,7.82
2019-03-20T04:45:14.218Z,7.75
2019-03-20T04:47:43.913Z,7.64
2019-03-20T04:50:13.353Z,7.80
2019-03-20T04:52:42.788Z,7.68
2019-03-20T04:55:12.608Z,7.65
2019-03-20T04:57:42.037Z,7.61
2019-03-20T05:00:13.142Z,7.47
2019-03-20T05:02:42.493Z,7.46
2019-03-20T05:05:11.910Z,7.37
2019-03-20T05:07:41.338Z,7.37
2019-03-20T05:10:12.106Z,7.63
2019-03-20T05:12:41.528Z,7.47
2019-03-20T05:15:11.147Z,7.36
2019-03-20T05:17:40.578Z,7.26
2019-03-20T05:20:11.226Z,7.36
2019-03-20T05:22:40.593Z,7.44
2019-03-20T05:25:10.183Z,7.45
2019-03-20T05:27:39.542Z,7.33
2019-03-20T05:30:09.921Z,7.54
2019-03-20T05:32:39.281Z,7.53
2019-03-20T05:35:08.752Z,7.52
2019-03-20T05:37:38.118Z,7.53
2019-03-20T05:40:08.423Z,7.58
2019-03-20T05:42:37.772Z,7.54
2019-03-20T05:45:08.483Z,7.37
2019-03-20T05:47:37.821Z,7.50
2019-03-20T05:50:07.605Z,7.57
2019-03-20T05:52:36.951Z,7.44
2019-03-20T05:55:06.742Z,7.49
2019-03-20T05:57:36.172Z,7.47
2019-03-20T06:00:06.089Z,7.41
2019-03-20T06:02:35.496Z,7.47
2019-03-20T06:05:05.324Z,7.55
2019-03-20T06:07:34.886Z,7.62
2019-03-20T06:10:05.219Z,7.53
2019-03-20T06:12:34.564Z,7.54
2019-03-20T06:15:04.033Z,7.57
2019-03-20T06:17:33.392Z,7.71
2019-03-20T06:20:02.804Z,7.66
2019-03-20T06:22:32.176Z,7.75
2019-03-20T06:25:01.517Z,7.67
2019-03-20T06:27:30.890Z,7.70
2019-03-20T06:30:00.364Z,7.78
2019-03-20T06:32:29.675Z,7.74
2019-03-20T06:34:59.034Z,7.62
2019-03-20T06:37:32.708Z,7.72
2019-03-20T06:39:59.791Z,7.88
2019-03-20T06:42:29.145Z,7.90
2019-03-20T06:44:58.530Z,7.77
2019-03-20T06:47:27.898Z,7.83
2019-03-20T06:49:57.293Z,7.74
2019-03-20T06:52:26.651Z,7.86
2019-03-20T06:54:56.087Z,7.77
2019-03-20T06:57:25.495Z,7.82
2019-03-20T07:00:31.953Z,7.65
2019-03-20T07:03:02.292Z,7.54
2019-03-20T07:06:07.299Z,7.76
2019-03-20T07:08:45.008Z,7.79
2019-03-20T07:11:15.093Z,8.05
2019-03-20T07:13:44.508Z,8.09
2019-03-20T07:16:13.881Z,7.95
2019-03-20T07:18:43.298Z,7.91
2019-03-20T07:21:12.746Z,7.94
2019-03-20T07:23:42.088Z,7.98
2019-03-20T07:26:11.451Z,8.03
2019-03-20T07:28:40.809Z,8.01
2019-03-20T07:31:15.208Z,8.18
2019-03-20T07:33:41.375Z,8.12
2019-03-20T07:36:11.021Z,8.22
2019-03-20T07:38:40.377Z,8.12
2019-03-20T07:41:09.708Z,8.20
2019-03-20T07:43:39.068Z,8.29
2019-03-20T07:46:08.499Z,8.32
2019-03-20T07:48:37.862Z,8.36
2019-03-20T07:51:07.202Z,8.30
2019-03-20T07:53:36.547Z,8.43
2019-03-20T07:56:05.966Z,8.36
2019-03-20T07:58:38.356Z,8.36
2019-03-20T08:01:07.790Z,8.29
2019-03-20T08:03:37.144Z,8.45
2019-03-20T08:06:06.880Z,8.51
2019-03-20T08:08:36.208Z,8.69
2019-03-20T08:11:05.702Z,8.60
2019-03-20T08:13:35.044Z,8.47
2019-03-20T08:16:04.464Z,8.45
2019-03-20T08:18:33.821Z,8.74
2019-03-20T08:21:03.246Z,8.72
2019-03-20T08:23:32.630Z,8.83
2019-03-20T08:26:04.952Z,8.95
2019-03-20T08:28:34.293Z,9.02
2019-03-20T08:31:03.940Z,9.11
2019-03-20T08:33:33.378Z,9.12
2019-03-20T08:36:02.936Z,9.20
2019-03-20T08:38:32.294Z,9.33
2019-03-20T08:41:01.656Z,9.37
2019-03-20T08:43:31.056Z,9.40
2019-03-20T08:46:00.425Z,9.67
2019-03-20T08:48:29.907Z,9.76
2019-03-20T08:50:59.242Z,9.86
2019-03-20T08:53:28.614Z,9.94
2019-03-20T08:55:57.993Z,10.04
2019-03-20T08:58:27.395Z,10.19
2019-03-20T09:00:56.791Z,10.39
2019-03-20T09:03:26.166Z,10.48
2019-03-20T09:05:56.929Z,10.62
2019-03-20T09:08:29.626Z,10.85
2019-03-20T09:10:57.417Z,10.83
2019-03-20T09:13:26.886Z,10.94
2019-03-20T09:15:56.284Z,10.99
2019-03-20T09:18:25.748Z,11.12
2019-03-20T09:20:55.112Z,11.25
2019-03-20T09:23:24.524Z,11.31
2019-03-20T09:25:54.100Z,11.42
2019-03-20T09:28:23.738Z,11.53
2019-03-20T09:30:53.097Z,11.65
2019-03-20T09:33:22.472Z,11.77
2019-03-20T09:35:51.833Z,11.87
2019-03-20T09:38:21.219Z,11.94
2019-03-20T09:40:50.720Z,12.02
2019-03-20T09:43:20.069Z,12.14
2019-03-20T09:45:49.437Z,12.24
2019-03-20T09:48:18.809Z,12.36
2019-03-20T09:50:48.145Z,12.50
2019-03-20T09:53:17.507Z,12.54
2019-03-20T09:55:46.853Z,12.62
2019-03-20T09:58:16.219Z,12.72
2019-03-20T10:00:57.625Z,12.88
2019-03-20T10:03:28.641Z,12.97
2019-03-20T10:05:57.984Z,13.01
2019-03-20T10:08:27.338Z,13.07
2019-03-20T10:10:56.793Z,13.08
2019-03-20T10:13:26.177Z,13.15
2019-03-20T10:15:55.518Z,13.21
2019-03-20T10:18:24.997Z,13.22
2019-03-20T10:23:41.278Z,13.35
2019-03-20T10:26:10.634Z,13.43
2019-03-20T10:28:40.004Z,13.46
2019-03-20T10:31:09.374Z,13.52
2019-03-20T10:33:38.748Z,13.60
2019-03-20T10:36:08.163Z,13.77
2019-03-20T10:38:37.591Z,13.86
2019-03-20T10:41:06.938Z,13.86
2019-03-20T10:43:36.322Z,14.02
2019-03-20T10:46:05.775Z,14.01
2019-03-20T10:48:35.182Z,14.04
2019-03-20T10:51:04.633Z,14.12
2019-03-20T10:53:34.051Z,14.29
2019-03-20T10:56:03.446Z,14.30
2019-03-20T10:58:32.914Z,14.35
2019-03-20T11:01:02.366Z,14.45
2019-03-20T11:03:31.780Z,14.47
2019-03-20T11:06:01.144Z,14.51
2019-03-20T11:08:30.539Z,14.49
2019-03-20T11:10:59.923Z,14.64
2019-03-20T11:13:29.317Z,14.76
2019-03-20T11:15:58.699Z,14.83
2019-03-20T11:18:28.166Z,14.86
2019-03-20T11:20:57.581Z,14.98
2019-03-20T11:23:27.001Z,14.98
2019-03-20T11:25:56.388Z,15.04
2019-03-20T11:28:25.782Z,15.22
2019-03-20T11:30:55.250Z,15.33
2019-03-20T11:33:24.722Z,15.33
2019-03-20T11:35:54.110Z,15.38
2019-03-20T11:38:23.500Z,15.57
2019-03-20T11:40:52.897Z,15.75
2019-03-20T11:43:22.370Z,15.60
2019-03-20T11:45:51.759Z,15.71
2019-03-20T11:48:21.140Z,15.92
2019-03-20T11:50:50.538Z,16.03
2019-03-20T11:53:19.952Z,16.06
2019-03-20T11:55:49.339Z,16.26
2019-03-20T12:02:15.687Z,16.39
2019-03-20T12:04:45.090Z,16.50
2019-03-20T12:07:14.485Z,16.66
2019-03-20T12:09:43.892Z,16.82
2019-03-20T12:12:13.302Z,17.09
2019-03-20T12:14:42.700Z,17.31
2019-03-20T12:17:12.107Z,17.28
2019-03-20T12:19:45.141Z,17.31
2019-03-20T12:22:12.663Z,17.46
2019-03-20T12:24:42.118Z,17.68
2019-03-20T12:27:15.462Z,17.77
2019-03-20T12:29:42.637Z,18.00
2019-03-20T12:32:12.029Z,17.80
2019-03-20T12:34:41.422Z,18.09
2019-03-20T12:37:10.887Z,18.01
2019-03-20T12:39:40.304Z,18.05
2019-03-20T12:42:09.704Z,18.20
2019-03-20T12:44:39.128Z,18.12
2019-03-20T12:47:08.529Z,18.20
2019-03-20T12:49:37.914Z,18.64
2019-03-20T12:52:07.317Z,18.92
2019-03-20T12:54:36.773Z,18.85
2019-03-20T12:57:06.231Z,19.02
2019-03-20T12:59:35.614Z,18.82
2019-03-20T13:02:05.019Z,18.50
2019-03-20T13:04:34.440Z,18.60
2019-03-20T13:07:03.839Z,18.64
2019-03-20T13:09:33.212Z,18.69
2019-03-20T13:12:02.610Z,18.86
2019-03-20T13:14:32.089Z,18.92
2019-03-20T13:17:01.483Z,18.91
2019-03-20T13:19:30.863Z,19.08
2019-03-20T13:22:00.279Z,19.46
2019-03-20T13:24:29.666Z,19.44
2019-03-20T13:26:59.064Z,19.52
2019-03-20T13:29:28.445Z,19.64
2019-03-20T13:31:57.837Z,19.56
2019-03-20T13:34:27.239Z,19.40
2019-03-20T13:36:56.616Z,19.47
2019-03-20T13:39:26.010Z,19.59
2019-03-20T13:41:55.399Z,19.51
2019-03-20T13:44:24.771Z,19.67
2019-03-20T13:46:54.166Z,19.74
2019-03-20T13:49:23.548Z,19.58
2019-03-20T13:51:52.931Z,19.68
2019-03-20T13:54:22.320Z,19.59
2019-03-20T13:56:51.718Z,19.72
2019-03-20T13:59:21.115Z,19.95
2019-03-20T14:01:50.582Z,20.02
2019-03-20T14:04:19.960Z,20.03
2019-03-20T14:06:49.348Z,20.00
2019-03-20T14:09:18.733Z,19.95
2019-03-20T14:11:48.132Z,20.06
2019-03-20T14:14:17.565Z,20.32
2019-03-20T14:16:46.957Z,20.53
2019-03-20T14:19:16.350Z,20.17
2019-03-20T14:21:45.998Z,20.13
2019-03-20T14:24:15.378Z,20.25
2019-03-20T14:26:44.772Z,20.14
2019-03-20T14:29:14.148Z,20.19
2019-03-20T14:31:43.555Z,20.19
2019-03-20T14:34:12.956Z,20.46
2019-03-20T14:36:42.388Z,20.53
2019-03-20T14:39:11.797Z,20.58
2019-03-20T14:41:41.186Z,20.63
2019-03-20T14:44:10.574Z,20.53
2019-03-20T14:46:40.165Z,20.78
2019-03-20T14:49:11.359Z,20.81
2019-03-20T14:51:40.824Z,21.07
2019-03-20T14:54:10.284Z,21.05
2019-03-20T14:56:39.671Z,20.86
2019-03-20T14:59:09.059Z,20.93
2019-03-20T15:01:38.452Z,21.06
2019-03-20T15:04:07.854Z,20.89
2019-03-20T15:06:37.248Z,21.09
2019-03-20T15:09:08.523Z,21.11
2019-03-20T15:11:38.058Z,21.25
2019-03-20T15:14:07.535Z,21.31
2019-03-20T15:16:36.911Z,21.26
2019-03-20T15:19:07.195Z,21.02
2019-03-20T15:21:36.561Z,21.05
2019-03-20T15:24:06.045Z,21.35
2019-03-20T15:26:35.428Z,21.39
2019-03-20T15:29:04.902Z,21.37
2019-03-20T15:31:34.285Z,21.31
2019-03-20T15:34:03.670Z,21.42
2019-03-20T15:36:33.049Z,21.04
2019-03-20T15:39:02.468Z,21.26
2019-03-20T15:41:31.878Z,21.36
2019-03-20T15:44:02.658Z,21.42
2019-03-20T15:46:32.202Z,21.40
2019-03-20T15:49:01.614Z,21.50
2019-03-20T15:51:30.984Z,21.52
2019-03-20T15:54:00.532Z,21.59
2019-03-20T15:56:30.268Z,21.61
2019-03-20T15:58:59.913Z,21.55
2019-03-20T16:01:29.520Z,21.32
2019-03-20T16:03:58.953Z,21.49
2019-03-20T16:06:28.409Z,21.50
2019-03-20T16:08:57.822Z,21.51
2019-03-20T16:11:27.238Z,21.39
2019-03-20T16:13:56.668Z,21.51
2019-03-20T16:16:26.139Z,21.08
2019-03-20T16:18:55.528Z,21.13
2019-03-20T16:21:24.916Z,21.34
2019-03-20T16:23:54.381Z,21.24
2019-03-20T16:26:23.770Z,21.31
2019-03-20T16:28:53.157Z,21.30
2019-03-20T16:31:22.566Z,21.21
2019-03-20T16:33:51.969Z,21.14
2019-03-20T16:36:21.341Z,21.11
2019-03-20T16:38:50.729Z,21.06
2019-03-20T16:41:20.129Z,20.97
2019-03-20T16:43:49.536Z,20.96
2019-03-20T16:46:18.903Z,20.88
2019-03-20T16:48:48.285Z,20.68
2019-03-20T16:51:17.674Z,20.55
2019-03-20T16:53:47.069Z,20.44
2019-03-20T16:56:16.558Z,19.92
2019-03-20T16:58:45.998Z,19.90
2019-03-20T17:01:15.385Z,19.92
2019-03-20T17:03:44.785Z,19.76
2019-03-20T17:06:14.265Z,19.68
2019-03-20T17:08:45.225Z,19.50
2019-03-20T17:11:14.770Z,19.39
2019-03-20T17:13:44.184Z,19.23
2019-03-20T17:16:13.572Z,19.09
2019-03-20T17:18:43.046Z,18.96
2019-03-20T17:21:12.428Z,18.76
2019-03-20T17:23:41.833Z,18.64
2019-03-20T17:26:11.230Z,18.51
2019-03-20T17:28:40.693Z,18.39
2019-03-20T17:31:10.090Z,18.25
2019-03-20T17:33:39.502Z,18.11
2019-03-20T17:36:08.973Z,17.97
2019-03-20T17:38:38.365Z,17.86
2019-03-20T17:41:07.828Z,17.72
2019-03-20T17:43:37.222Z,17.58
2019-03-20T17:46:06.841Z,17.45
2019-03-20T17:48:36.227Z,17.32
2019-03-20T17:51:05.608Z,17.19
2019-03-20T17:53:35.013Z,17.06
2019-03-20T17:56:04.562Z,16.95
2019-03-20T17:58:33.992Z,16.84
2019-03-20T18:01:03.374Z,16.74
2019-03-20T18:03:32.794Z,16.59
2019-03-20T18:06:02.200Z,16.42
2019-03-20T18:08:31.595Z,16.33
2019-03-20T18:11:01.057Z,16.23
2019-03-20T18:13:30.453Z,16.14
2019-03-20T18:15:59.845Z,16.07
2019-03-20T18:18:29.257Z,16.05
2019-03-20T18:20:58.647Z,15.98
2019-03-20T18:23:28.137Z,15.91
2019-03-20T18:25:57.542Z,15.84
2019-03-20T18:28:26.947Z,15.74
2019-03-20T18:30:56.370Z,15.65
2019-03-20T18:33:25.768Z,15.58
2019-03-20T18:35:55.170Z,15.49
2019-03-20T18:38:24.554Z,15.42
2019-03-20T18:40:53.952Z,15.33
2019-03-20T18:43:23.327Z,15.22
2019-03-20T18:45:52.683Z,15.12
2019-03-20T18:48:22.049Z,15.05
2019-03-20T18:50:51.424Z,14.97
2019-03-20T18:53:20.889Z,14.85
2019-03-20T18:55:50.313Z,14.77
2019-03-20T18:58:19.684Z,14.76
2019-03-20T19:00:49.140Z,14.64
2019-03-20T19:03:18.593Z,14.62
2019-03-20T19:05:51.211Z,14.50
2019-03-20T19:08:20.731Z,14.45
2019-03-20T19:10:50.163Z,14.42
2019-03-20T19:13:19.633Z,14.34
2019-03-20T19:15:49.299Z,14.25
2019-03-20T19:18:18.717Z,14.20
2019-03-20T19:20:48.324Z,14.04
2019-03-20T19:23:24.266Z,14.01
2019-03-20T19:25:55.547Z,13.87
2019-03-20T19:28:24.890Z,13.77
2019-03-20T19:30:57.235Z,13.77
2019-03-20T19:33:26.632Z,13.67
2019-03-20T19:35:55.996Z,13.62
2019-03-20T19:38:34.480Z,13.51
2019-03-20T19:40:56.465Z,13.41
2019-03-20T19:43:25.903Z,13.42
2019-03-20T19:45:55.264Z,13.33
2019-03-20T19:48:24.624Z,13.31
2019-03-20T19:50:54.051Z,13.14
2019-03-20T19:53:23.402Z,13.17
2019-03-20T19:55:52.795Z,13.11
2019-03-20T19:58:22.152Z,13.08
2019-03-20T20:00:51.528Z,12.99
2019-03-20T20:03:20.905Z,12.90
2019-03-20T20:05:50.296Z,12.93
2019-03-20T20:08:19.663Z,12.92
2019-03-20T20:10:49.103Z,12.86
2019-03-20T20:13:18.488Z,12.96
2019-03-20T20:15:47.877Z,12.82
2019-03-20T20:18:17.246Z,12.61
2019-03-20T20:20:46.675Z,12.62
2019-03-20T20:23:16.105Z,12.58
2019-03-20T20:25:45.483Z,12.59
2019-03-20T20:28:31.918Z,12.62
2019-03-20T20:31:01.453Z,12.66
2019-03-20T20:33:30.882Z,12.64
2019-03-20T20:36:00.319Z,12.61
2019-03-20T20:38:29.683Z,12.60
2019-03-20T20:40:59.036Z,12.54
2019-03-20T20:43:28.394Z,12.52
2019-03-20T20:45:57.763Z,12.47
2019-03-20T20:48:27.124Z,12.44
2019-03-20T20:50:56.742Z,12.31
2019-03-20T20:53:26.104Z,12.28
2019-03-20T20:55:58.252Z,12.14
2019-03-20T20:58:27.603Z,12.08
2019-03-20T21:00:56.989Z,12.03
2019-03-20T21:03:26.349Z,11.87
2019-03-20T21:05:55.705Z,11.88
2019-03-20T21:08:25.163Z,11.76
2019-03-20T21:10:54.519Z,11.80
2019-03-20T21:13:24.007Z,11.74
2019-03-20T21:15:57.338Z,11.68
2019-03-20T21:19:04.070Z,11.66
2019-03-20T21:21:44.351Z,11.60
2019-03-20T21:24:25.487Z,11.55
2019-03-20T21:27:26.550Z,11.44
2019-03-20T21:30:49.909Z,11.49
2019-03-20T21:34:01.313Z,11.30
2019-03-20T21:37:19.693Z,11.16
2019-03-20T21:39:49.587Z,11.12
2019-03-20T21:43:08.991Z,11.12
2019-03-20T21:45:55.089Z,11.18
2019-03-20T21:48:25.052Z,11.24
2019-03-20T21:51:23.351Z,11.12
2019-03-20T21:54:34.405Z,11.08
2019-03-20T21:57:32.463Z,11.02
2019-03-20T22:00:41.578Z,11.09
2019-03-20T22:03:11.475Z,11.07
2019-03-20T22:06:39.838Z,11.03
2019-03-20T22:09:53.640Z,11.05
2019-03-20T22:12:34.182Z,10.85
2019-03-20T22:15:12.079Z,10.76
2019-03-20T22:18:20.011Z,10.78
2019-03-20T22:20:57.313Z,10.76
2019-03-20T22:24:14.248Z,10.64
2019-03-20T22:27:25.099Z,10.57
2019-03-20T22:29:54.989Z,10.72
2019-03-20T22:33:10.413Z,10.59
2019-03-20T22:36:16.202Z,10.58
2019-03-20T22:39:23.231Z,10.40
2019-03-20T22:42:13.304Z,10.37
2019-03-20T22:44:50.641Z,10.34
2019-03-20T22:47:56.941Z,10.38
2019-03-20T22:51:00.245Z,10.46
2019-03-20T22:54:04.268Z,10.58
2019-03-20T22:57:00.509Z,10.60
2019-03-20T22:59:30.406Z,10.61
2019-03-20T23:02:19.243Z,10.60
2019-03-20T23:04:55.289Z,10.74
2019-03-20T23:07:25.296Z,10.73
2019-03-20T23:09:55.177Z,10.60
2019-03-20T23:12:25.190Z,10.76
2019-03-20T23:14:55.093Z,10.67
2019-03-20T23:17:24.987Z,10.77
2019-03-20T23:19:55.896Z,10.69
2019-03-20T23:22:25.829Z,10.62
2019-03-20T23:24:55.727Z,10.53
2019-03-20T23:27:30.430Z,10.48
2019-03-20T23:30:00.986Z,10.43
2019-03-20T23:32:31.223Z,10.62
2019-03-20T23:35:01.127Z,10.50
2019-03-20T23:37:31.112Z,10.39
2019-03-20T23:40:01.017Z,10.37
2019-03-20T23:42:30.928Z,10.35
2019-03-20T23:45:00.920Z,10.33
2019-03-20T23:48:02.612Z,10.34
2019-03-20T23:50:32.510Z,10.47
2019-03-20T23:53:02.422Z,10.38
2019-03-20T23:55:32.343Z,10.34
2019-03-20T23:58:02.233Z,10.27
